createdAt,value
2022-10-20T00:01:12.015Z,0.57
2022-10-20T00:03:39.433Z,0.50
2022-10-20T00:06:26.582Z,0.63
2022-10-20T00:08:58.438Z,0.50
2022-10-20T00:11:26.314Z,0.80
2022-10-20T00:13:55.771Z,0.70
2022-10-20T00:16:24.126Z,0.70
2022-10-20T00:18:51.805Z,0.60
2022-10-20T00:21:22.216Z,0.67
2022-10-20T00:23:49.915Z,0.80
2022-10-20T00:26:24.211Z,0.70
2022-10-20T00:28:52.444Z,0.60
2022-10-20T00:31:21.344Z,0.60
2022-10-20T00:33:49.166Z,0.60
2022-10-20T00:36:19.294Z,0.53
2022-10-20T00:38:46.527Z,0.60
2022-10-20T00:41:16.868Z,0.53
2022-10-20T00:43:48.472Z,0.60
2022-10-20T00:46:21.689Z,0.80
2022-10-20T00:48:53.000Z,0.40
2022-10-20T00:51:24.856Z,0.50
2022-10-20T00:53:56.099Z,0.50
2022-10-20T00:56:23.371Z,0.73
2022-10-20T00:58:51.123Z,0.53
2022-10-20T01:01:19.157Z,0.43
2022-10-20T01:03:51.853Z,0.60
2022-10-20T01:06:22.265Z,0.50
2022-10-20T01:08:52.786Z,0.60
2022-10-20T01:11:32.036Z,0.60
2022-10-20T01:14:17.626Z,0.60
2022-10-20T01:17:09.676Z,0.50
2022-10-20T01:20:01.509Z,0.60
2022-10-20T01:22:40.669Z,0.60
2022-10-20T01:25:07.908Z,0.77
2022-10-20T01:27:42.280Z,0.80
2022-10-20T01:30:14.663Z,0.57
2022-10-20T01:32:41.761Z,0.57
2022-10-20T01:35:21.220Z,0.60
2022-10-20T01:38:14.544Z,0.80
2022-10-20T01:40:51.150Z,0.67
2022-10-20T01:43:21.849Z,0.70
2022-10-20T01:45:51.048Z,0.70
2022-10-20T01:48:22.803Z,0.70
2022-10-20T01:50:51.213Z,0.70
2022-10-20T01:53:19.757Z,0.80
2022-10-20T01:55:49.826Z,0.90
2022-10-20T01:58:29.254Z,0.50
2022-10-20T02:01:03.324Z,0.70
2022-10-20T02:03:34.823Z,0.73
2022-10-20T02:06:26.328Z,0.73
2022-10-20T02:09:00.092Z,0.70
2022-10-20T02:11:48.141Z,1.00
2022-10-20T02:14:18.701Z,0.87
2022-10-20T02:17:08.384Z,0.73
2022-10-20T02:19:40.306Z,0.80
2022-10-20T02:22:10.088Z,0.90
2022-10-20T02:24:40.112Z,0.80
2022-10-20T02:27:30.520Z,0.70
2022-10-20T02:30:02.596Z,0.57
2022-10-20T02:32:32.078Z,0.70
2022-10-20T02:35:03.478Z,0.70
2022-10-20T02:37:34.425Z,0.77
2022-10-20T02:40:02.117Z,1.00
2022-10-20T02:42:29.357Z,0.80
2022-10-20T02:44:56.573Z,0.60
2022-10-20T02:47:23.735Z,0.93
2022-10-20T02:49:50.943Z,1.00
2022-10-20T02:52:18.119Z,0.80
2022-10-20T02:54:45.248Z,0.70
2022-10-20T02:57:12.402Z,0.70
2022-10-20T02:59:39.512Z,0.80
2022-10-20T03:02:06.710Z,0.70
2022-10-20T03:04:33.904Z,0.70
2022-10-20T03:07:01.113Z,0.90
2022-10-20T03:09:28.276Z,0.70
2022-10-20T03:11:55.502Z,0.53
2022-10-20T03:14:22.712Z,0.60
2022-10-20T03:16:49.852Z,0.60
2022-10-20T03:19:17.072Z,0.50
2022-10-20T03:21:44.225Z,0.50
2022-10-20T03:24:11.365Z,0.67
2022-10-20T03:26:38.847Z,0.60
2022-10-20T03:29:06.021Z,0.63
2022-10-20T03:31:33.540Z,0.50
2022-10-20T03:34:00.713Z,0.60
2022-10-20T03:36:27.890Z,0.60
2022-10-20T03:38:55.010Z,0.63
2022-10-20T03:41:22.190Z,0.70
2022-10-20T03:43:49.387Z,0.80
2022-10-20T03:46:16.515Z,0.80
2022-10-20T03:48:43.666Z,0.73
2022-10-20T03:51:13.331Z,0.80
2022-10-20T03:53:40.795Z,0.80
2022-10-20T03:56:09.928Z,0.70
2022-10-20T03:58:37.206Z,0.70
2022-10-20T04:01:06.533Z,0.77
2022-10-20T04:03:33.873Z,1.00
2022-10-20T04:06:01.298Z,0.90
2022-10-20T04:08:28.479Z,0.80
2022-10-20T04:10:55.780Z,0.90
2022-10-20T04:13:23.018Z,0.80
2022-10-20T04:15:50.295Z,1.10
2022-10-20T04:18:17.557Z,0.90
2022-10-20T04:20:44.868Z,1.10
2022-10-20T04:23:12.532Z,1.00
2022-10-20T04:25:47.741Z,0.93
2022-10-20T04:28:20.103Z,1.10
2022-10-20T04:30:49.457Z,1.00
2022-10-20T04:33:17.301Z,0.87
2022-10-20T04:35:44.779Z,1.00
2022-10-20T04:38:12.150Z,0.73
2022-10-20T04:40:39.374Z,0.77
2022-10-20T04:43:06.534Z,1.00
2022-10-20T04:45:33.679Z,0.80
2022-10-20T04:48:02.345Z,0.60
2022-10-20T04:50:29.641Z,0.80
2022-10-20T04:52:58.575Z,0.80
2022-10-20T04:55:26.333Z,0.90
2022-10-20T04:57:53.518Z,0.90
2022-10-20T05:00:20.732Z,0.90
2022-10-20T05:02:47.990Z,0.77
2022-10-20T05:05:15.250Z,0.97
2022-10-20T05:07:42.461Z,0.93
2022-10-20T05:10:09.732Z,0.80
2022-10-20T05:12:37.076Z,0.93
2022-10-20T05:15:04.929Z,0.80
2022-10-20T05:17:32.192Z,0.90
2022-10-20T05:19:59.368Z,0.93
2022-10-20T05:22:26.541Z,1.20
2022-10-20T05:24:53.764Z,1.07
2022-10-20T05:27:20.908Z,1.10
2022-10-20T05:29:48.333Z,0.83
2022-10-20T05:32:15.537Z,0.90
2022-10-20T05:34:44.022Z,1.20
2022-10-20T05:37:11.382Z,1.33
2022-10-20T05:39:38.692Z,1.00
2022-10-20T05:42:06.446Z,0.97
2022-10-20T05:44:33.668Z,1.00
2022-10-20T05:47:00.940Z,1.27
2022-10-20T05:49:28.433Z,1.30
2022-10-20T05:51:55.650Z,1.10
2022-10-20T05:54:22.868Z,1.20
2022-10-20T05:56:50.026Z,1.30
2022-10-20T05:59:17.308Z,1.30
2022-10-20T06:01:50.712Z,1.20
2022-10-20T06:04:20.641Z,1.00
2022-10-20T06:06:49.090Z,1.20
2022-10-20T06:09:17.948Z,1.20
2022-10-20T06:11:45.281Z,1.13
2022-10-20T06:14:12.472Z,1.20
2022-10-20T06:16:39.731Z,1.10
2022-10-20T06:19:07.429Z,1.30
2022-10-20T06:21:35.691Z,1.40
2022-10-20T06:24:04.935Z,1.17
2022-10-20T06:26:33.814Z,1.23
2022-10-20T06:29:04.723Z,1.17
2022-10-20T06:31:34.698Z,1.20
2022-10-20T06:34:05.279Z,1.10
2022-10-20T06:36:38.295Z,1.10
2022-10-20T06:39:07.574Z,1.17
2022-10-20T06:41:35.594Z,1.10
2022-10-20T06:44:02.971Z,1.13
2022-10-20T06:46:33.286Z,1.07
2022-10-20T06:49:01.812Z,1.20
2022-10-20T06:51:29.527Z,0.97
2022-10-20T06:53:56.982Z,1.10
2022-10-20T06:56:25.935Z,0.90
2022-10-20T06:58:55.383Z,1.00
2022-10-20T07:01:34.661Z,1.10
2022-10-20T07:04:07.639Z,1.30
2022-10-20T07:06:37.688Z,1.03
2022-10-20T07:09:09.949Z,1.33
2022-10-20T07:11:37.092Z,1.30
2022-10-20T07:14:05.062Z,1.20
2022-10-20T07:16:34.947Z,1.20
2022-10-20T07:19:03.829Z,1.17
2022-10-20T07:21:35.726Z,1.40
2022-10-20T07:24:06.249Z,1.37
2022-10-20T07:26:36.491Z,1.10
2022-10-20T07:29:04.508Z,1.00
2022-10-20T07:31:31.728Z,1.00
2022-10-20T07:34:13.295Z,0.73
2022-10-20T07:36:49.386Z,0.80
2022-10-20T07:39:17.107Z,0.90
2022-10-20T07:41:45.740Z,0.73
2022-10-20T07:44:13.117Z,0.80
2022-10-20T07:46:40.261Z,0.80
2022-10-20T07:49:31.245Z,0.80
2022-10-20T07:51:54.689Z,0.70
2022-10-20T07:54:21.971Z,0.87
2022-10-20T07:56:49.771Z,0.80
2022-10-20T07:59:17.586Z,0.90
2022-10-20T08:01:44.968Z,0.80
2022-10-20T08:04:12.373Z,0.80
2022-10-20T08:06:39.810Z,1.10
2022-10-20T08:09:07.737Z,1.00
2022-10-20T08:11:35.924Z,1.00
2022-10-20T08:14:03.395Z,1.00
2022-10-20T08:16:30.611Z,1.10
2022-10-20T08:21:41.839Z,0.90
2022-10-20T08:24:09.311Z,0.97
2022-10-20T08:26:36.441Z,1.00
2022-10-20T08:29:03.719Z,1.00
2022-10-20T08:31:31.092Z,0.97
2022-10-20T08:33:59.889Z,0.70
2022-10-20T08:36:28.391Z,0.70
2022-10-20T08:38:56.594Z,0.90
2022-10-20T08:41:38.813Z,1.10
2022-10-20T08:44:23.737Z,0.63
2022-10-20T08:46:50.950Z,0.57
2022-10-20T08:49:24.745Z,0.80
2022-10-20T08:51:52.207Z,0.67
2022-10-20T08:54:19.617Z,0.90
2022-10-20T08:56:47.561Z,0.73
2022-10-20T08:59:25.384Z,0.60
2022-10-20T09:01:53.960Z,0.60
2022-10-20T09:04:29.072Z,0.53
2022-10-20T09:07:03.443Z,0.60
2022-10-20T09:09:32.548Z,0.40
2022-10-20T09:12:10.441Z,0.70
2022-10-20T09:14:37.996Z,0.40
2022-10-20T09:17:09.193Z,0.70
2022-10-20T09:19:38.915Z,0.60
2022-10-20T09:22:07.361Z,0.50
2022-10-20T09:24:36.491Z,0.50
2022-10-20T09:27:22.765Z,0.57
2022-10-20T09:29:50.421Z,0.33
2022-10-20T09:32:49.342Z,0.50
2022-10-20T09:35:21.771Z,0.40
2022-10-20T09:37:57.017Z,0.50
2022-10-20T09:40:26.565Z,0.50
2022-10-20T09:43:07.488Z,0.50
2022-10-20T09:45:35.976Z,0.47
2022-10-20T09:48:16.986Z,0.47
2022-10-20T09:50:49.764Z,0.53
2022-10-20T09:53:22.371Z,0.30
2022-10-20T09:55:51.503Z,0.40
2022-10-20T09:58:30.600Z,0.40
2022-10-20T10:01:18.529Z,0.50
2022-10-20T10:03:53.569Z,0.40
2022-10-20T10:06:49.944Z,0.40
2022-10-20T10:09:50.848Z,0.50
2022-10-20T10:12:19.928Z,0.70
2022-10-20T10:14:54.660Z,0.40
2022-10-20T10:17:35.873Z,0.50
2022-10-20T10:20:25.206Z,0.57
2022-10-20T10:22:53.102Z,0.40
2022-10-20T10:25:28.083Z,0.30
2022-10-20T10:28:06.989Z,0.40
2022-10-20T10:30:36.142Z,0.30
2022-10-20T10:33:28.986Z,0.30
2022-10-20T10:35:57.082Z,0.40
2022-10-20T10:38:24.298Z,0.30
2022-10-20T10:41:07.851Z,0.37
2022-10-20T10:43:43.785Z,0.40
2022-10-20T10:46:33.999Z,0.30
2022-10-20T10:49:24.420Z,0.30
2022-10-20T10:52:26.914Z,0.20
2022-10-20T10:55:11.734Z,0.30
2022-10-20T10:58:12.069Z,0.30
2022-10-20T11:01:02.190Z,0.20
2022-10-20T11:03:45.110Z,0.30
2022-10-20T11:06:38.751Z,0.47
2022-10-20T11:09:20.685Z,0.40
2022-10-20T11:12:09.400Z,0.30
2022-10-20T11:14:52.603Z,0.30
2022-10-20T11:17:52.662Z,0.20
2022-10-20T11:20:44.442Z,0.33
2022-10-20T11:23:44.884Z,0.30
2022-10-20T11:26:36.345Z,0.40
2022-10-20T11:29:35.412Z,0.57
2022-10-20T11:32:11.223Z,0.47
2022-10-20T11:35:17.181Z,0.30
2022-10-20T11:38:12.787Z,0.20
2022-10-20T11:40:43.922Z,0.37
2022-10-20T11:43:43.282Z,0.20
2022-10-20T11:46:38.203Z,0.20
2022-10-20T11:49:06.645Z,0.20
2022-10-20T11:51:39.863Z,0.10
2022-10-20T11:54:34.992Z,0.20
2022-10-20T11:57:26.870Z,0.37
2022-10-20T12:00:15.207Z,0.30
2022-10-20T12:03:10.214Z,0.20
2022-10-20T12:06:09.207Z,0.20
2022-10-20T12:09:11.687Z,0.10
2022-10-20T12:11:56.576Z,0.20
2022-10-20T12:14:38.354Z,0.20
2022-10-20T12:17:36.409Z,0.17
2022-10-20T12:20:21.996Z,0.20
2022-10-20T12:22:54.598Z,0.20
2022-10-20T12:25:27.986Z,0.20
2022-10-20T12:28:20.149Z,0.20
2022-10-20T12:31:03.321Z,0.40
2022-10-20T12:33:53.796Z,0.20
2022-10-20T12:36:34.320Z,0.20
2022-10-20T12:39:14.480Z,0.27
2022-10-20T12:42:24.293Z,0.13
2022-10-20T12:44:52.203Z,0.10
2022-10-20T12:47:27.027Z,0.30
2022-10-20T12:49:58.533Z,0.20
2022-10-20T12:52:31.064Z,0.20
2022-10-20T12:55:21.398Z,0.20
2022-10-20T12:57:48.871Z,0.30
2022-10-20T13:00:22.155Z,0.10
2022-10-20T13:02:58.106Z,0.30
2022-10-20T13:05:45.573Z,0.20
2022-10-20T13:08:21.610Z,0.20
2022-10-20T13:10:49.526Z,0.40
2022-10-20T13:13:19.701Z,0.40
2022-10-20T13:15:51.086Z,0.30
2022-10-20T13:18:26.888Z,0.30
2022-10-20T13:20:57.093Z,0.30
2022-10-20T13:23:55.111Z,0.40
2022-10-20T13:26:26.350Z,0.30
2022-10-20T13:28:59.885Z,0.40
2022-10-20T13:31:51.981Z,0.30
2022-10-20T13:34:49.003Z,0.30
2022-10-20T13:37:25.880Z,0.40
2022-10-20T13:40:08.073Z,0.30
2022-10-20T13:43:09.271Z,0.40
2022-10-20T13:46:13.471Z,0.30
2022-10-20T13:48:50.672Z,0.20
2022-10-20T13:51:26.686Z,0.30
2022-10-20T13:53:58.557Z,0.20
2022-10-20T13:56:49.896Z,0.20
2022-10-20T13:59:20.921Z,0.30
2022-10-20T14:01:52.164Z,0.30
2022-10-20T14:04:25.917Z,0.40
2022-10-20T14:06:53.479Z,0.23
2022-10-20T14:09:23.352Z,0.30
2022-10-20T14:12:03.607Z,0.40
2022-10-20T14:14:31.771Z,0.30
2022-10-20T14:17:07.942Z,0.40
2022-10-20T14:19:35.794Z,0.20
2022-10-20T14:22:21.446Z,0.33
2022-10-20T14:24:53.808Z,0.30
2022-10-20T14:27:26.075Z,0.40
2022-10-20T14:29:54.247Z,0.40
2022-10-20T14:32:25.133Z,0.40
2022-10-20T14:35:02.059Z,0.30
2022-10-20T14:37:40.779Z,0.40
2022-10-20T14:40:20.110Z,0.37
2022-10-20T14:42:47.865Z,0.40
2022-10-20T14:45:24.217Z,0.30
2022-10-20T14:47:52.726Z,0.50
2022-10-20T14:50:37.700Z,0.30
2022-10-20T14:53:18.301Z,0.30
2022-10-20T14:55:45.717Z,0.40
2022-10-20T14:58:36.834Z,0.40
2022-10-20T15:01:22.196Z,0.50
2022-10-20T15:04:06.554Z,0.50
2022-10-20T15:06:34.617Z,0.87
2022-10-20T15:09:02.828Z,0.60
2022-10-20T15:11:32.400Z,0.47
2022-10-20T15:14:00.936Z,0.50
2022-10-20T15:16:54.596Z,0.47
2022-10-20T15:19:31.551Z,0.57
2022-10-20T15:22:07.808Z,0.50
2022-10-20T15:24:35.296Z,0.60
2022-10-20T15:27:03.162Z,0.70
2022-10-20T15:29:31.566Z,0.67
2022-10-20T15:31:59.181Z,0.53
2022-10-20T15:34:26.596Z,0.70
2022-10-20T15:36:53.872Z,0.50
2022-10-20T15:39:21.150Z,0.83
2022-10-20T15:41:50.324Z,0.73
2022-10-20T15:44:22.822Z,0.80
2022-10-20T15:46:55.096Z,0.90
2022-10-20T15:49:22.946Z,0.50
2022-10-20T15:51:53.085Z,0.43
2022-10-20T15:54:22.809Z,0.70
2022-10-20T15:56:50.418Z,0.47
2022-10-20T15:59:17.649Z,0.50
2022-10-20T16:01:44.903Z,0.57
2022-10-20T16:04:23.810Z,0.50
2022-10-20T16:06:57.772Z,0.40
2022-10-20T16:09:26.655Z,0.43
2022-10-20T16:11:53.888Z,0.50
2022-10-20T16:14:21.150Z,0.60
2022-10-20T16:16:48.527Z,0.53
2022-10-20T16:19:15.801Z,0.60
2022-10-20T16:21:43.034Z,0.60
2022-10-20T16:24:11.607Z,0.70
2022-10-20T16:26:38.851Z,0.70
2022-10-20T16:29:06.271Z,0.60
2022-10-20T16:31:33.570Z,0.70
2022-10-20T16:34:01.358Z,0.50
2022-10-20T16:36:28.710Z,0.50
2022-10-20T16:39:00.883Z,0.40
2022-10-20T16:41:28.091Z,0.47
2022-10-20T16:43:58.732Z,0.40
2022-10-20T16:46:27.419Z,0.60
2022-10-20T16:48:57.435Z,0.40
2022-10-20T16:51:24.790Z,0.50
2022-10-20T16:53:54.010Z,0.47
2022-10-20T16:56:22.275Z,0.50
2022-10-20T16:58:49.905Z,0.80
2022-10-20T17:01:19.797Z,0.53
2022-10-20T17:03:52.610Z,0.50
2022-10-20T17:06:22.906Z,0.40
2022-10-20T17:08:50.554Z,0.30
2022-10-20T17:11:27.494Z,0.60
2022-10-20T17:13:56.476Z,0.50
2022-10-20T17:16:28.829Z,0.40
2022-10-20T17:19:01.244Z,0.53
2022-10-20T17:21:30.094Z,0.60
2022-10-20T17:23:58.420Z,0.60
2022-10-20T17:26:27.578Z,0.60
2022-10-20T17:28:56.639Z,0.40
2022-10-20T17:31:24.334Z,0.57
2022-10-20T17:33:52.354Z,0.40
2022-10-20T17:36:26.155Z,1.00
2022-10-20T17:39:01.978Z,0.70
2022-10-20T17:41:29.732Z,0.70
2022-10-20T17:43:59.778Z,0.60
2022-10-20T17:46:27.506Z,0.60
2022-10-20T17:48:54.991Z,0.77
2022-10-20T17:51:27.809Z,0.70
2022-10-20T17:53:58.681Z,1.37
2022-10-20T17:56:37.326Z,0.70
2022-10-20T17:59:06.759Z,0.80
2022-10-20T18:01:39.365Z,0.60
2022-10-20T18:04:15.318Z,0.70
2022-10-20T18:06:43.896Z,0.80
2022-10-20T18:09:13.733Z,0.77
2022-10-20T18:11:45.324Z,0.80
2022-10-20T18:14:12.746Z,0.80
2022-10-20T18:16:41.051Z,0.77
2022-10-20T18:19:12.204Z,0.90
2022-10-20T18:21:39.498Z,0.73
2022-10-20T18:24:08.775Z,0.67
2022-10-20T18:26:37.390Z,0.90
2022-10-20T18:29:07.073Z,1.00
2022-10-20T18:31:36.134Z,1.10
2022-10-20T18:34:08.364Z,1.20
2022-10-20T18:36:41.978Z,1.07
2022-10-20T18:39:14.560Z,1.17
2022-10-20T18:41:43.303Z,1.10
2022-10-20T18:44:13.866Z,1.20
2022-10-20T18:46:42.852Z,1.30
2022-10-20T18:49:13.404Z,1.20
2022-10-20T18:51:41.491Z,1.57
2022-10-20T18:54:13.661Z,1.10
2022-10-20T18:56:44.811Z,1.23
2022-10-20T18:59:16.617Z,1.20
2022-10-20T19:01:44.839Z,1.23
2022-10-20T19:04:15.761Z,1.30
2022-10-20T19:06:48.820Z,1.20
2022-10-20T19:09:20.460Z,1.10
2022-10-20T19:11:51.959Z,0.87
2022-10-20T19:14:21.645Z,1.20
2022-10-20T19:16:49.924Z,1.10
2022-10-20T19:19:17.551Z,1.00
2022-10-20T19:21:45.163Z,1.00
2022-10-20T19:24:20.757Z,1.10
2022-10-20T19:27:02.036Z,1.17
2022-10-20T19:29:35.669Z,1.13
2022-10-20T19:32:04.854Z,1.30
2022-10-20T19:34:35.596Z,1.10
2022-10-20T19:37:03.764Z,1.17
2022-10-20T19:39:39.645Z,1.20
2022-10-20T19:42:08.649Z,0.93
2022-10-20T19:44:36.250Z,1.20
2022-10-20T19:47:04.189Z,1.20
2022-10-20T19:49:31.562Z,1.20
2022-10-20T19:51:59.732Z,1.30
2022-10-20T19:54:27.520Z,1.00
2022-10-20T19:56:54.860Z,1.20
2022-10-20T19:59:22.869Z,1.10
2022-10-20T20:01:52.457Z,1.10
2022-10-20T20:04:20.010Z,0.97
2022-10-20T20:06:47.645Z,1.03
2022-10-20T20:09:15.969Z,1.10
2022-10-20T20:11:44.251Z,1.20
2022-10-20T20:14:15.693Z,1.23
2022-10-20T20:19:18.048Z,1.10
2022-10-20T20:21:46.269Z,1.17
2022-10-20T20:24:14.498Z,1.27
2022-10-20T20:26:42.107Z,1.40
2022-10-20T20:29:10.817Z,1.30
2022-10-20T20:31:38.171Z,1.20
2022-10-20T20:34:05.487Z,1.10
2022-10-20T20:36:32.848Z,1.07
2022-10-20T20:39:00.402Z,1.10
2022-10-20T20:41:30.445Z,1.30
2022-10-20T20:43:57.721Z,1.37
2022-10-20T20:46:29.522Z,1.33
2022-10-20T20:48:58.040Z,1.23
2022-10-20T20:51:26.179Z,1.20
2022-10-20T20:53:53.479Z,1.40
2022-10-20T20:56:23.170Z,1.30
2022-10-20T20:58:55.081Z,1.23
2022-10-20T21:01:27.874Z,1.23
2022-10-20T21:04:00.752Z,1.23
2022-10-20T21:06:33.913Z,1.20
2022-10-20T21:09:07.494Z,1.73
2022-10-20T21:11:34.987Z,1.50
2022-10-20T21:14:02.758Z,1.53
2022-10-20T21:16:35.609Z,1.70
2022-10-20T21:19:05.998Z,1.67
2022-10-20T21:21:35.488Z,1.70
2022-10-20T21:24:04.774Z,2.17
2022-10-20T21:26:33.733Z,1.50
2022-10-20T21:29:01.093Z,2.50
2022-10-20T21:31:29.925Z,2.97
2022-10-20T21:34:02.751Z,2.70
2022-10-20T21:36:32.644Z,2.27
2022-10-20T21:39:00.235Z,2.87
2022-10-20T21:41:30.333Z,3.30
2022-10-20T21:43:59.706Z,3.67
2022-10-20T21:46:36.108Z,3.80
2022-10-20T21:49:10.615Z,3.60
2022-10-20T21:51:40.806Z,3.73
2022-10-20T21:54:13.972Z,3.47
2022-10-20T21:56:44.667Z,4.27
2022-10-20T21:59:19.024Z,4.30
2022-10-20T22:01:47.586Z,3.30
2022-10-20T22:04:15.773Z,3.53
2022-10-20T22:06:43.134Z,3.60
2022-10-20T22:09:12.924Z,3.50
2022-10-20T22:11:43.468Z,3.40
2022-10-20T22:14:10.958Z,3.30
2022-10-20T22:16:41.172Z,3.40
2022-10-20T22:19:18.166Z,3.40
2022-10-20T22:21:47.690Z,3.07
2022-10-20T22:24:15.781Z,2.83
2022-10-20T22:26:43.408Z,2.90
2022-10-20T22:29:11.126Z,2.63
2022-10-20T22:31:40.345Z,3.40
2022-10-20T22:34:08.472Z,2.90
2022-10-20T22:36:36.010Z,3.07
2022-10-20T22:39:04.814Z,3.33
2022-10-20T22:41:32.251Z,3.33
2022-10-20T22:43:59.486Z,3.60
2022-10-20T22:46:26.846Z,3.07
2022-10-20T22:48:54.091Z,3.20
2022-10-20T22:51:21.447Z,3.17
2022-10-20T22:53:48.818Z,2.90
2022-10-20T22:56:19.299Z,2.77
2022-10-20T22:58:47.799Z,3.13
2022-10-20T23:01:18.228Z,3.10
2022-10-20T23:03:46.192Z,2.97
2022-10-20T23:06:19.229Z,2.70
2022-10-20T23:08:49.554Z,3.00
2022-10-20T23:11:17.658Z,3.10
2022-10-20T23:13:45.369Z,3.00
2022-10-20T23:16:13.535Z,3.03
2022-10-20T23:18:41.128Z,3.00
2022-10-20T23:21:08.826Z,2.53
2022-10-20T23:23:37.581Z,3.00
2022-10-20T23:26:06.647Z,2.80
2022-10-20T23:28:35.137Z,2.70
2022-10-20T23:31:22.029Z,2.50
2022-10-20T23:33:53.995Z,2.30
2022-10-20T23:36:22.176Z,2.73
2022-10-20T23:38:49.501Z,3.17
2022-10-20T23:41:16.799Z,2.37
2022-10-20T23:43:44.048Z,2.30
2022-10-20T23:46:14.530Z,2.50
2022-10-20T23:48:41.825Z,2.67
2022-10-20T23:51:09.108Z,2.23
2022-10-20T23:53:36.355Z,2.13
2022-10-20T23:56:04.147Z,2.30
2022-10-20T23:58:31.395Z,2.40
